sensor_id;sensor_type;location;lat;lon;timestamp;temperature;humidity
32811;DHT22;65470;47.324;8.548;2023-04-03T00:01:32;10.00;99.90
32811;DHT22;65470;47.324;8.548;2023-04-03T00:03:58;10.00;99.90
32811;DHT22;65470;47.324;8.548;2023-04-03T00:06:24;10.10;99.90
32811;DHT22;65470;47.324;8.548;2023-04-03T00:08:50;10.10;99.90
32811;DHT22;65470;47.324;8.548;2023-04-03T00:11:17;9.90;99.90
32811;DHT22;65470;47.324;8.548;2023-04-03T00:13:43;9.80;99.90
32811;DHT22;65470;47.324;8.548;2023-04-03T00:16:10;9.70;99.90
32811;DHT22;65470;47.324;8.548;2023-04-03T00:18:37;9.60;99.90
32811;DHT22;65470;47.324;8.548;2023-04-03T00:21:04;9.50;99.90
32811;DHT22;65470;47.324;8.548;2023-04-03T00:23:30;9.50;99.90
32811;DHT22;65470;47.324;8.548;2023-04-03T00:25:55;9.40;99.90
32811;DHT22;65470;47.324;8.548;2023-04-03T00:28:22;9.50;99.90
32811;DHT22;65470;47.324;8.548;2023-04-03T00:30:51;9.40;99.90
32811;DHT22;65470;47.324;8.548;2023-04-03T00:33:16;9.40;99.90
32811;DHT22;65470;47.324;8.548;2023-04-03T00:35:42;9.30;99.90
32811;DHT22;65470;47.324;8.548;2023-04-03T00:38:08;9.30;99.90
32811;DHT22;65470;47.324;8.548;2023-04-03T00:40:37;9.30;99.90
32811;DHT22;65470;47.324;8.548;2023-04-03T00:43:20;9.30;99.90
32811;DHT22;65470;47.324;8.548;2023-04-03T00:45:48;9.20;99.90
32811;DHT22;65470;47.324;8.548;2023-04-03T00:48:29;9.20;99.90
32811;DHT22;65470;47.324;8.548;2023-04-03T00:50:55;9.00;99.90
32811;DHT22;65470;47.324;8.548;2023-04-03T00:53:46;9.00;99.90
32811;DHT22;65470;47.324;8.548;2023-04-03T00:56:12;9.00;99.90
32811;DHT22;65470;47.324;8.548;2023-04-03T00:58:59;9.00;99.90
32811;DHT22;65470;47.324;8.548;2023-04-03T01:01:27;9.00;99.90
32811;DHT22;65470;47.324;8.548;2023-04-03T01:03:54;9.00;99.90
32811;DHT22;65470;47.324;8.548;2023-04-03T01:06:40;8.90;99.90
32811;DHT22;65470;47.324;8.548;2023-04-03T01:09:06;8.80;99.90
32811;DHT22;65470;47.324;8.548;2023-04-03T01:11:32;8.70;99.90
32811;DHT22;65470;47.324;8.548;2023-04-03T01:13:57;8.80;99.90
32811;DHT22;65470;47.324;8.548;2023-04-03T01:16:23;8.70;99.90
32811;DHT22;65470;47.324;8.548;2023-04-03T01:18:49;8.70;99.90
32811;DHT22;65470;47.324;8.548;2023-04-03T01:26:30;8.50;99.90
32811;DHT22;65470;47.324;8.548;2023-04-03T01:28:55;8.50;99.90
32811;DHT22;65470;47.324;8.548;2023-04-03T01:31:52;8.40;99.90
32811;DHT22;65470;47.324;8.548;2023-04-03T01:34:18;8.40;99.90
32811;DHT22;65470;47.324;8.548;2023-04-03T01:36:44;8.30;99.90
32811;DHT22;65470;47.324;8.548;2023-04-03T01:39:10;8.30;99.90
32811;DHT22;65470;47.324;8.548;2023-04-03T01:41:36;8.20;99.90
32811;DHT22;65470;47.324;8.548;2023-04-03T01:44:02;8.20;99.90
32811;DHT22;65470;47.324;8.548;2023-04-03T01:46:27;8.10;99.90
32811;DHT22;65470;47.324;8.548;2023-04-03T01:48:53;8.10;99.90
32811;DHT22;65470;47.324;8.548;2023-04-03T01:51:18;8.10;99.90
32811;DHT22;65470;47.324;8.548;2023-04-03T01:53:44;8.10;99.90
32811;DHT22;65470;47.324;8.548;2023-04-03T01:56:10;8.10;99.90
32811;DHT22;65470;47.324;8.548;2023-04-03T01:58:35;8.20;99.90
32811;DHT22;65470;47.324;8.548;2023-04-03T02:04:23;8.00;99.90
32811;DHT22;65470;47.324;8.548;2023-04-03T02:06:48;7.90;99.90
32811;DHT22;65470;47.324;8.548;2023-04-03T02:09:14;7.90;99.90
32811;DHT22;65470;47.324;8.548;2023-04-03T02:11:40;7.90;99.90
32811;DHT22;65470;47.324;8.548;2023-04-03T02:14:06;8.00;99.90
32811;DHT22;65470;47.324;8.548;2023-04-03T02:16:32;7.80;99.90
32811;DHT22;65470;47.324;8.548;2023-04-03T02:18:57;7.70;99.90
32811;DHT22;65470;47.324;8.548;2023-04-03T02:21:23;7.70;99.90
32811;DHT22;65470;47.324;8.548;2023-04-03T02:23:49;7.70;99.90
32811;DHT22;65470;47.324;8.548;2023-04-03T02:26:15;7.70;99.90
32811;DHT22;65470;47.324;8.548;2023-04-03T02:28:41;7.70;99.90
32811;DHT22;65470;47.324;8.548;2023-04-03T02:31:08;7.60;99.90
32811;DHT22;65470;47.324;8.548;2023-04-03T02:33:35;7.60;99.90
32811;DHT22;65470;47.324;8.548;2023-04-03T02:36:06;7.70;99.90
32811;DHT22;65470;47.324;8.548;2023-04-03T02:38:32;7.60;99.90
32811;DHT22;65470;47.324;8.548;2023-04-03T02:41:06;7.50;99.90
32811;DHT22;65470;47.324;8.548;2023-04-03T02:43:32;7.50;99.90
32811;DHT22;65470;47.324;8.548;2023-04-03T02:45:58;7.50;99.90
32811;DHT22;65470;47.324;8.548;2023-04-03T02:48:23;7.60;99.90
32811;DHT22;65470;47.324;8.548;2023-04-03T02:50:49;7.50;99.90
32811;DHT22;65470;47.324;8.548;2023-04-03T02:53:15;7.50;99.90
32811;DHT22;65470;47.324;8.548;2023-04-03T02:55:41;7.40;99.90
32811;DHT22;65470;47.324;8.548;2023-04-03T02:58:07;7.30;99.90
32811;DHT22;65470;47.324;8.548;2023-04-03T03:00:33;7.40;99.90
32811;DHT22;65470;47.324;8.548;2023-04-03T03:02:59;7.40;99.90
32811;DHT22;65470;47.324;8.548;2023-04-03T03:05:26;7.40;99.90
32811;DHT22;65470;47.324;8.548;2023-04-03T03:07:52;7.40;99.90
32811;DHT22;65470;47.324;8.548;2023-04-03T03:10:18;7.40;99.90
32811;DHT22;65470;47.324;8.548;2023-04-03T03:12:44;7.30;99.90
32811;DHT22;65470;47.324;8.548;2023-04-03T03:15:10;7.40;99.90
32811;DHT22;65470;47.324;8.548;2023-04-03T03:17:36;7.30;99.90
32811;DHT22;65470;47.324;8.548;2023-04-03T03:20:03;7.30;99.90
32811;DHT22;65470;47.324;8.548;2023-04-03T03:22:28;7.30;99.90
32811;DHT22;65470;47.324;8.548;2023-04-03T03:24:54;7.40;99.90
32811;DHT22;65470;47.324;8.548;2023-04-03T03:27:20;7.40;99.90
32811;DHT22;65470;47.324;8.548;2023-04-03T03:29:46;7.30;99.90
32811;DHT22;65470;47.324;8.548;2023-04-03T03:32:12;7.20;99.90
32811;DHT22;65470;47.324;8.548;2023-04-03T03:34:37;7.10;99.90
32811;DHT22;65470;47.324;8.548;2023-04-03T03:37:03;7.00;99.90
32811;DHT22;65470;47.324;8.548;2023-04-03T03:39:29;6.90;99.90
32811;DHT22;65470;47.324;8.548;2023-04-03T03:41:55;6.90;99.90
32811;DHT22;65470;47.324;8.548;2023-04-03T03:44:21;6.90;99.90
32811;DHT22;65470;47.324;8.548;2023-04-03T03:46:47;6.80;99.90
32811;DHT22;65470;47.324;8.548;2023-04-03T03:49:12;6.80;99.90
32811;DHT22;65470;47.324;8.548;2023-04-03T03:51:38;6.80;99.90
32811;DHT22;65470;47.324;8.548;2023-04-03T03:54:05;6.90;99.90
32811;DHT22;65470;47.324;8.548;2023-04-03T03:56:31;6.90;99.90
32811;DHT22;65470;47.324;8.548;2023-04-03T03:58:57;6.80;99.90
32811;DHT22;65470;47.324;8.548;2023-04-03T04:01:23;6.70;99.90
32811;DHT22;65470;47.324;8.548;2023-04-03T04:03:49;6.70;99.90
32811;DHT22;65470;47.324;8.548;2023-04-03T04:06:15;6.70;99.90
32811;DHT22;65470;47.324;8.548;2023-04-03T04:08:40;6.60;99.90
32811;DHT22;65470;47.324;8.548;2023-04-03T04:11:07;6.60;99.90
32811;DHT22;65470;47.324;8.548;2023-04-03T04:13:33;6.60;99.90
32811;DHT22;65470;47.324;8.548;2023-04-03T04:15:58;6.60;99.90
32811;DHT22;65470;47.324;8.548;2023-04-03T04:18:24;6.60;99.90
32811;DHT22;65470;47.324;8.548;2023-04-03T04:20:50;6.60;99.90
32811;DHT22;65470;47.324;8.548;2023-04-03T04:23:16;6.60;99.90
32811;DHT22;65470;47.324;8.548;2023-04-03T04:25:45;6.60;99.90
32811;DHT22;65470;47.324;8.548;2023-04-03T04:28:11;6.60;99.90
32811;DHT22;65470;47.324;8.548;2023-04-03T04:30:37;6.60;99.90
32811;DHT22;65470;47.324;8.548;2023-04-03T04:33:02;6.60;99.90
32811;DHT22;65470;47.324;8.548;2023-04-03T04:35:28;6.50;99.90
32811;DHT22;65470;47.324;8.548;2023-04-03T04:37:54;6.50;99.90
32811;DHT22;65470;47.324;8.548;2023-04-03T04:40:20;6.40;99.90
32811;DHT22;65470;47.324;8.548;2023-04-03T04:42:46;6.40;99.90
32811;DHT22;65470;47.324;8.548;2023-04-03T04:45:12;6.40;99.90
32811;DHT22;65470;47.324;8.548;2023-04-03T04:47:37;6.30;99.90
32811;DHT22;65470;47.324;8.548;2023-04-03T04:50:03;6.30;99.90
32811;DHT22;65470;47.324;8.548;2023-04-03T04:52:29;6.30;99.90
32811;DHT22;65470;47.324;8.548;2023-04-03T04:54:55;6.30;99.90
32811;DHT22;65470;47.324;8.548;2023-04-03T04:57:20;6.30;99.90
32811;DHT22;65470;47.324;8.548;2023-04-03T04:59:46;6.20;99.90
32811;DHT22;65470;47.324;8.548;2023-04-03T05:02:12;6.20;99.90
32811;DHT22;65470;47.324;8.548;2023-04-03T05:04:37;6.20;99.90
32811;DHT22;65470;47.324;8.548;2023-04-03T05:07:03;6.20;99.90
32811;DHT22;65470;47.324;8.548;2023-04-03T05:09:29;6.20;99.90
32811;DHT22;65470;47.324;8.548;2023-04-03T05:11:54;6.30;99.90
32811;DHT22;65470;47.324;8.548;2023-04-03T05:14:21;6.30;99.90
32811;DHT22;65470;47.324;8.548;2023-04-03T05:16:47;6.30;99.90
32811;DHT22;65470;47.324;8.548;2023-04-03T05:19:13;6.30;99.90
32811;DHT22;65470;47.324;8.548;2023-04-03T05:21:38;6.20;99.90
32811;DHT22;65470;47.324;8.548;2023-04-03T05:24:05;6.10;99.90
32811;DHT22;65470;47.324;8.548;2023-04-03T05:26:34;6.20;99.90
32811;DHT22;65470;47.324;8.548;2023-04-03T05:29:00;6.10;99.90
32811;DHT22;65470;47.324;8.548;2023-04-03T05:31:25;6.20;99.90
32811;DHT22;65470;47.324;8.548;2023-04-03T05:33:51;6.20;99.90
32811;DHT22;65470;47.324;8.548;2023-04-03T05:36:17;6.10;99.90
32811;DHT22;65470;47.324;8.548;2023-04-03T05:38:43;6.10;99.90
32811;DHT22;65470;47.324;8.548;2023-04-03T05:41:09;6.10;99.90
32811;DHT22;65470;47.324;8.548;2023-04-03T05:43:34;6.10;99.90
32811;DHT22;65470;47.324;8.548;2023-04-03T05:46:03;6.00;99.90
32811;DHT22;65470;47.324;8.548;2023-04-03T05:48:28;5.90;99.90
32811;DHT22;65470;47.324;8.548;2023-04-03T05:50:54;5.90;99.90
32811;DHT22;65470;47.324;8.548;2023-04-03T05:53:30;5.90;99.90
32811;DHT22;65470;47.324;8.548;2023-04-03T05:55:56;5.90;99.90
32811;DHT22;65470;47.324;8.548;2023-04-03T05:58:22;6.00;99.90
32811;DHT22;65470;47.324;8.548;2023-04-03T06:00:47;6.00;99.90
32811;DHT22;65470;47.324;8.548;2023-04-03T06:03:13;6.10;99.90
32811;DHT22;65470;47.324;8.548;2023-04-03T06:05:39;6.10;99.90
32811;DHT22;65470;47.324;8.548;2023-04-03T06:08:05;6.20;99.90
32811;DHT22;65470;47.324;8.548;2023-04-03T06:10:31;6.10;99.90
32811;DHT22;65470;47.324;8.548;2023-04-03T06:12:56;6.20;99.90
32811;DHT22;65470;47.324;8.548;2023-04-03T06:15:22;6.20;99.90
32811;DHT22;65470;47.324;8.548;2023-04-03T06:17:48;6.30;99.90
32811;DHT22;65470;47.324;8.548;2023-04-03T06:20:14;6.40;99.90
32811;DHT22;65470;47.324;8.548;2023-04-03T06:22:39;6.50;99.90
32811;DHT22;65470;47.324;8.548;2023-04-03T06:25:05;6.40;99.90
32811;DHT22;65470;47.324;8.548;2023-04-03T06:27:31;6.40;99.90
32811;DHT22;65470;47.324;8.548;2023-04-03T06:29:57;6.30;99.90
32811;DHT22;65470;47.324;8.548;2023-04-03T06:32:22;6.40;99.90
32811;DHT22;65470;47.324;8.548;2023-04-03T06:34:48;6.40;99.90
32811;DHT22;65470;47.324;8.548;2023-04-03T06:37:19;6.60;99.90
32811;DHT22;65470;47.324;8.548;2023-04-03T06:39:45;6.50;99.90
32811;DHT22;65470;47.324;8.548;2023-04-03T06:42:11;6.30;99.90
32811;DHT22;65470;47.324;8.548;2023-04-03T06:44:37;6.30;99.90
32811;DHT22;65470;47.324;8.548;2023-04-03T06:47:03;6.40;99.90
32811;DHT22;65470;47.324;8.548;2023-04-03T06:49:28;6.50;99.90
32811;DHT22;65470;47.324;8.548;2023-04-03T06:51:55;6.50;99.90
32811;DHT22;65470;47.324;8.548;2023-04-03T06:54:21;6.70;99.90
32811;DHT22;65470;47.324;8.548;2023-04-03T06:56:47;6.70;99.90
32811;DHT22;65470;47.324;8.548;2023-04-03T06:59:13;6.80;99.90
32811;DHT22;65470;47.324;8.548;2023-04-03T07:01:40;6.70;99.90
32811;DHT22;65470;47.324;8.548;2023-04-03T07:04:07;6.70;99.90
32811;DHT22;65470;47.324;8.548;2023-04-03T07:06:33;6.80;99.90
32811;DHT22;65470;47.324;8.548;2023-04-03T07:09:00;6.90;99.90
32811;DHT22;65470;47.324;8.548;2023-04-03T07:11:26;7.00;99.90
32811;DHT22;65470;47.324;8.548;2023-04-03T07:13:52;7.00;99.90
32811;DHT22;65470;47.324;8.548;2023-04-03T07:16:19;7.00;99.90
32811;DHT22;65470;47.324;8.548;2023-04-03T07:18:45;7.00;99.90
32811;DHT22;65470;47.324;8.548;2023-04-03T07:21:11;7.10;99.90
32811;DHT22;65470;47.324;8.548;2023-04-03T07:23:37;7.20;99.90
32811;DHT22;65470;47.324;8.548;2023-04-03T07:26:03;7.40;99.90
32811;DHT22;65470;47.324;8.548;2023-04-03T07:28:29;7.40;99.90
32811;DHT22;65470;47.324;8.548;2023-04-03T07:31:06;7.50;99.90
32811;DHT22;65470;47.324;8.548;2023-04-03T07:33:34;7.50;99.90
32811;DHT22;65470;47.324;8.548;2023-04-03T07:36:01;7.40;99.90
32811;DHT22;65470;47.324;8.548;2023-04-03T07:38:27;7.40;99.90
32811;DHT22;65470;47.324;8.548;2023-04-03T07:40:53;7.40;99.90
32811;DHT22;65470;47.324;8.548;2023-04-03T07:43:20;7.30;99.90
32811;DHT22;65470;47.324;8.548;2023-04-03T07:45:47;7.50;99.90
32811;DHT22;65470;47.324;8.548;2023-04-03T07:48:22;7.50;99.90
32811;DHT22;65470;47.324;8.548;2023-04-03T07:50:48;7.50;99.90
32811;DHT22;65470;47.324;8.548;2023-04-03T07:53:15;7.50;99.90
32811;DHT22;65470;47.324;8.548;2023-04-03T07:55:41;7.60;99.90
32811;DHT22;65470;47.324;8.548;2023-04-03T07:58:11;7.80;99.90
32811;DHT22;65470;47.324;8.548;2023-04-03T08:00:37;7.90;99.90
32811;DHT22;65470;47.324;8.548;2023-04-03T08:03:04;8.00;99.90
32811;DHT22;65470;47.324;8.548;2023-04-03T08:05:29;8.10;99.90
32811;DHT22;65470;47.324;8.548;2023-04-03T08:07:55;8.30;99.90
32811;DHT22;65470;47.324;8.548;2023-04-03T08:10:21;8.30;99.90
32811;DHT22;65470;47.324;8.548;2023-04-03T08:12:47;8.30;99.90
32811;DHT22;65470;47.324;8.548;2023-04-03T08:15:13;8.30;99.90
32811;DHT22;65470;47.324;8.548;2023-04-03T08:17:38;8.40;99.90
32811;DHT22;65470;47.324;8.548;2023-04-03T08:20:05;8.60;99.90
32811;DHT22;65470;47.324;8.548;2023-04-03T08:22:32;8.80;99.90
32811;DHT22;65470;47.324;8.548;2023-04-03T08:24:58;8.60;99.90
32811;DHT22;65470;47.324;8.548;2023-04-03T08:27:25;8.60;99.90
32811;DHT22;65470;47.324;8.548;2023-04-03T08:29:51;8.60;99.90
32811;DHT22;65470;47.324;8.548;2023-04-03T08:32:17;8.50;99.90
32811;DHT22;65470;47.324;8.548;2023-04-03T08:34:44;8.60;99.90
32811;DHT22;65470;47.324;8.548;2023-04-03T08:37:10;8.60;99.90
32811;DHT22;65470;47.324;8.548;2023-04-03T08:39:36;8.60;99.90
32811;DHT22;65470;47.324;8.548;2023-04-03T08:42:05;8.50;99.90
32811;DHT22;65470;47.324;8.548;2023-04-03T08:44:54;8.50;99.90
32811;DHT22;65470;47.324;8.548;2023-04-03T08:47:30;8.60;99.90
32811;DHT22;65470;47.324;8.548;2023-04-03T08:50:10;8.50;99.90
32811;DHT22;65470;47.324;8.548;2023-04-03T08:52:45;8.50;99.90
32811;DHT22;65470;47.324;8.548;2023-04-03T08:55:28;8.60;99.90
32811;DHT22;65470;47.324;8.548;2023-04-03T08:58:00;8.60;99.90
32811;DHT22;65470;47.324;8.548;2023-04-03T09:00:30;8.70;99.90
32811;DHT22;65470;47.324;8.548;2023-04-03T09:02:57;8.70;99.90
32811;DHT22;65470;47.324;8.548;2023-04-03T09:08:26;8.80;99.80
32811;DHT22;65470;47.324;8.548;2023-04-03T09:10:59;8.70;99.30
32811;DHT22;65470;47.324;8.548;2023-04-03T09:13:34;8.80;99.90
32811;DHT22;65470;47.324;8.548;2023-04-03T09:16:12;8.80;99.90
32811;DHT22;65470;47.324;8.548;2023-04-03T09:18:45;8.90;99.90
32811;DHT22;65470;47.324;8.548;2023-04-03T09:21:42;9.00;99.90
32811;DHT22;65470;47.324;8.548;2023-04-03T09:24:10;9.10;98.70
32811;DHT22;65470;47.324;8.548;2023-04-03T09:27:04;8.90;98.10
32811;DHT22;65470;47.324;8.548;2023-04-03T09:29:37;8.80;99.10
32811;DHT22;65470;47.324;8.548;2023-04-03T09:32:19;8.70;99.90
32811;DHT22;65470;47.324;8.548;2023-04-03T09:34:47;8.60;99.80
32811;DHT22;65470;47.324;8.548;2023-04-03T09:37:35;8.40;99.40
32811;DHT22;65470;47.324;8.548;2023-04-03T09:40:02;8.40;99.90
32811;DHT22;65470;47.324;8.548;2023-04-03T09:42:30;8.50;99.90
32811;DHT22;65470;47.324;8.548;2023-04-03T09:45:05;8.50;99.90
32811;DHT22;65470;47.324;8.548;2023-04-03T09:47:32;8.60;99.90
32811;DHT22;65470;47.324;8.548;2023-04-03T09:52:48;8.50;99.90
32811;DHT22;65470;47.324;8.548;2023-04-03T09:55:21;8.40;99.80
32811;DHT22;65470;47.324;8.548;2023-04-03T09:57:59;8.50;99.70
32811;DHT22;65470;47.324;8.548;2023-04-03T10:02:57;8.70;99.90
32811;DHT22;65470;47.324;8.548;2023-04-03T10:10:32;8.60;99.90
32811;DHT22;65470;47.324;8.548;2023-04-03T10:15:42;8.80;99.90
32811;DHT22;65470;47.324;8.548;2023-04-03T10:23:54;9.20;99.80
32811;DHT22;65470;47.324;8.548;2023-04-03T10:26:49;9.40;98.40
32811;DHT22;65470;47.324;8.548;2023-04-03T10:32:38;9.30;96.30
32811;DHT22;65470;47.324;8.548;2023-04-03T10:35:24;9.30;97.70
32811;DHT22;65470;47.324;8.548;2023-04-03T10:46:07;9.70;97.10
32811;DHT22;65470;47.324;8.548;2023-04-03T10:49:05;9.80;98.10
32811;DHT22;65470;47.324;8.548;2023-04-03T10:51:44;9.90;97.80
32811;DHT22;65470;47.324;8.548;2023-04-03T10:54:24;10.20;97.80
32811;DHT22;65470;47.324;8.548;2023-04-03T10:56:54;10.40;97.30
32811;DHT22;65470;47.324;8.548;2023-04-03T10:59:35;10.60;96.80
32811;DHT22;65470;47.324;8.548;2023-04-03T11:02:22;10.70;96.10
32811;DHT22;65470;47.324;8.548;2023-04-03T11:04:53;10.50;95.00
32811;DHT22;65470;47.324;8.548;2023-04-03T11:07:23;10.50;95.30
32811;DHT22;65470;47.324;8.548;2023-04-03T11:09:54;10.50;95.20
32811;DHT22;65470;47.324;8.548;2023-04-03T11:15:12;10.70;96.70
32811;DHT22;65470;47.324;8.548;2023-04-03T11:17:55;11.00;95.10
32811;DHT22;65470;47.324;8.548;2023-04-03T11:20:33;11.10;94.30
32811;DHT22;65470;47.324;8.548;2023-04-03T11:23:24;10.90;93.20
32811;DHT22;65470;47.324;8.548;2023-04-03T11:25:55;10.60;93.30
32811;DHT22;65470;47.324;8.548;2023-04-03T11:28:23;10.50;92.80
32811;DHT22;65470;47.324;8.548;2023-04-03T11:31:02;10.10;93.80
32811;DHT22;65470;47.324;8.548;2023-04-03T11:36:31;9.90;94.60
32811;DHT22;65470;47.324;8.548;2023-04-03T11:39:16;9.90;96.60
32811;DHT22;65470;47.324;8.548;2023-04-03T11:41:44;9.90;95.70
32811;DHT22;65470;47.324;8.548;2023-04-03T11:44:28;9.90;95.60
32811;DHT22;65470;47.324;8.548;2023-04-03T11:46:55;10.10;94.40
32811;DHT22;65470;47.324;8.548;2023-04-03T11:58:16;10.30;93.50
32811;DHT22;65470;47.324;8.548;2023-04-03T12:00:53;10.60;92.50
32811;DHT22;65470;47.324;8.548;2023-04-03T12:05:52;10.70;93.00
32811;DHT22;65470;47.324;8.548;2023-04-03T12:08:44;10.70;93.00
32811;DHT22;65470;47.324;8.548;2023-04-03T12:14:03;10.60;93.40
32811;DHT22;65470;47.324;8.548;2023-04-03T12:19:31;10.80;91.20
32811;DHT22;65470;47.324;8.548;2023-04-03T12:24:24;10.70;92.10
32811;DHT22;65470;47.324;8.548;2023-04-03T12:35:05;10.70;93.40
32811;DHT22;65470;47.324;8.548;2023-04-03T12:40:34;10.80;93.70
32811;DHT22;65470;47.324;8.548;2023-04-03T12:45:56;10.60;91.60
32811;DHT22;65470;47.324;8.548;2023-04-03T12:48:27;10.50;93.10
32811;DHT22;65470;47.324;8.548;2023-04-03T12:50:54;10.40;93.30
32811;DHT22;65470;47.324;8.548;2023-04-03T12:53:35;10.40;93.40
32811;DHT22;65470;47.324;8.548;2023-04-03T12:56:25;10.30;94.30
32811;DHT22;65470;47.324;8.548;2023-04-03T12:58:53;10.30;93.50
32811;DHT22;65470;47.324;8.548;2023-04-03T13:01:22;10.40;93.40
32811;DHT22;65470;47.324;8.548;2023-04-03T13:03:56;10.50;93.50
32811;DHT22;65470;47.324;8.548;2023-04-03T13:06:43;10.50;93.60
32811;DHT22;65470;47.324;8.548;2023-04-03T13:09:28;10.60;93.30
32811;DHT22;65470;47.324;8.548;2023-04-03T13:12:01;10.40;94.20
32811;DHT22;65470;47.324;8.548;2023-04-03T13:14:29;10.50;94.80
32811;DHT22;65470;47.324;8.548;2023-04-03T13:17:02;10.60;93.90
32811;DHT22;65470;47.324;8.548;2023-04-03T13:19:28;10.60;93.50
32811;DHT22;65470;47.324;8.548;2023-04-03T13:22:08;10.50;93.60
32811;DHT22;65470;47.324;8.548;2023-04-03T13:24:37;10.50;92.00
32811;DHT22;65470;47.324;8.548;2023-04-03T13:27:04;10.40;92.50
32811;DHT22;65470;47.324;8.548;2023-04-03T13:29:38;10.20;93.70
32811;DHT22;65470;47.324;8.548;2023-04-03T13:32:06;10.10;91.70
32811;DHT22;65470;47.324;8.548;2023-04-03T13:34:41;10.10;92.20
32811;DHT22;65470;47.324;8.548;2023-04-03T13:37:21;10.10;93.80
32811;DHT22;65470;47.324;8.548;2023-04-03T13:39:58;10.30;93.70
32811;DHT22;65470;47.324;8.548;2023-04-03T13:42:30;10.30;92.00
32811;DHT22;65470;47.324;8.548;2023-04-03T13:45:17;10.30;92.20
32811;DHT22;65470;47.324;8.548;2023-04-03T13:47:44;10.40;91.30
32811;DHT22;65470;47.324;8.548;2023-04-03T13:55:33;11.10;92.50
32811;DHT22;65470;47.324;8.548;2023-04-03T13:58:00;11.20;90.60
32811;DHT22;65470;47.324;8.548;2023-04-03T14:02:57;11.10;90.70
32811;DHT22;65470;47.324;8.548;2023-04-03T14:05:24;11.10;90.30
32811;DHT22;65470;47.324;8.548;2023-04-03T14:07:51;11.10;90.60
32811;DHT22;65470;47.324;8.548;2023-04-03T14:10:17;11.20;90.30
32811;DHT22;65470;47.324;8.548;2023-04-03T14:12:43;11.20;91.50
32811;DHT22;65470;47.324;8.548;2023-04-03T14:15:23;11.00;91.80
32811;DHT22;65470;47.324;8.548;2023-04-03T14:17:50;10.90;91.50
32811;DHT22;65470;47.324;8.548;2023-04-03T14:20:24;10.80;90.30
32811;DHT22;65470;47.324;8.548;2023-04-03T14:22:50;10.60;91.70
32811;DHT22;65470;47.324;8.548;2023-04-03T14:25:16;10.50;92.20
32811;DHT22;65470;47.324;8.548;2023-04-03T14:27:45;10.40;91.20
32811;DHT22;65470;47.324;8.548;2023-04-03T14:30:30;10.40;91.50
32811;DHT22;65470;47.324;8.548;2023-04-03T14:32:57;10.30;92.40
32811;DHT22;65470;47.324;8.548;2023-04-03T14:35:24;10.30;92.30
32811;DHT22;65470;47.324;8.548;2023-04-03T14:37:52;10.30;93.50
32811;DHT22;65470;47.324;8.548;2023-04-03T14:40:24;10.30;93.90
32811;DHT22;65470;47.324;8.548;2023-04-03T14:42:50;10.30;93.70
32811;DHT22;65470;47.324;8.548;2023-04-03T14:45:17;10.20;92.50
32811;DHT22;65470;47.324;8.548;2023-04-03T14:48:03;10.00;92.50
32811;DHT22;65470;47.324;8.548;2023-04-03T14:50:28;10.00;91.90
32811;DHT22;65470;47.324;8.548;2023-04-03T14:52:57;9.70;92.40
32811;DHT22;65470;47.324;8.548;2023-04-03T14:55:24;9.50;93.10
32811;DHT22;65470;47.324;8.548;2023-04-03T14:57:51;9.20;93.60
32811;DHT22;65470;47.324;8.548;2023-04-03T15:00:19;9.30;94.60
32811;DHT22;65470;47.324;8.548;2023-04-03T15:02:45;9.20;93.40
32811;DHT22;65470;47.324;8.548;2023-04-03T15:05:11;9.10;93.60
32811;DHT22;65470;47.324;8.548;2023-04-03T15:07:43;9.10;94.10
32811;DHT22;65470;47.324;8.548;2023-04-03T15:10:22;9.10;94.40
32811;DHT22;65470;47.324;8.548;2023-04-03T15:12:49;9.20;94.40
32811;DHT22;65470;47.324;8.548;2023-04-03T15:15:17;9.30;94.40
32811;DHT22;65470;47.324;8.548;2023-04-03T15:17:43;9.30;95.20
32811;DHT22;65470;47.324;8.548;2023-04-03T15:20:18;9.30;94.30
32811;DHT22;65470;47.324;8.548;2023-04-03T15:22:44;9.30;93.60
32811;DHT22;65470;47.324;8.548;2023-04-03T15:25:10;9.20;93.70
32811;DHT22;65470;47.324;8.548;2023-04-03T15:27:37;9.20;92.80
32811;DHT22;65470;47.324;8.548;2023-04-03T15:30:05;9.00;93.50
32811;DHT22;65470;47.324;8.548;2023-04-03T15:32:31;9.10;94.60
32811;DHT22;65470;47.324;8.548;2023-04-03T15:34:59;9.20;94.30
32811;DHT22;65470;47.324;8.548;2023-04-03T15:37:24;9.30;93.30
32811;DHT22;65470;47.324;8.548;2023-04-03T15:39:50;9.20;92.80
32811;DHT22;65470;47.324;8.548;2023-04-03T15:42:16;9.10;93.30
32811;DHT22;65470;47.324;8.548;2023-04-03T15:44:41;9.00;93.60
32811;DHT22;65470;47.324;8.548;2023-04-03T15:47:07;9.00;93.10
32811;DHT22;65470;47.324;8.548;2023-04-03T15:49:33;9.00;92.20
32811;DHT22;65470;47.324;8.548;2023-04-03T15:51:59;9.00;93.40
32811;DHT22;65470;47.324;8.548;2023-04-03T15:54:25;9.00;93.00
32811;DHT22;65470;47.324;8.548;2023-04-03T15:56:52;9.00;93.10
32811;DHT22;65470;47.324;8.548;2023-04-03T15:59:18;9.10;93.50
32811;DHT22;65470;47.324;8.548;2023-04-03T16:01:44;9.10;93.60
32811;DHT22;65470;47.324;8.548;2023-04-03T16:04:10;9.10;93.60
32811;DHT22;65470;47.324;8.548;2023-04-03T16:06:37;9.10;92.90
32811;DHT22;65470;47.324;8.548;2023-04-03T16:09:03;9.00;93.10
32811;DHT22;65470;47.324;8.548;2023-04-03T16:11:29;8.90;93.50
32811;DHT22;65470;47.324;8.548;2023-04-03T16:13:55;9.00;93.50
32811;DHT22;65470;47.324;8.548;2023-04-03T16:16:22;9.00;93.20
32811;DHT22;65470;47.324;8.548;2023-04-03T16:18:48;9.00;93.90
32811;DHT22;65470;47.324;8.548;2023-04-03T16:21:16;9.00;94.30
32811;DHT22;65470;47.324;8.548;2023-04-03T16:23:43;8.90;93.50
32811;DHT22;65470;47.324;8.548;2023-04-03T16:26:09;8.90;93.30
32811;DHT22;65470;47.324;8.548;2023-04-03T16:28:34;8.80;94.10
32811;DHT22;65470;47.324;8.548;2023-04-03T16:31:01;8.70;93.50
32811;DHT22;65470;47.324;8.548;2023-04-03T16:33:27;8.70;94.00
32811;DHT22;65470;47.324;8.548;2023-04-03T16:35:53;8.80;93.70
32811;DHT22;65470;47.324;8.548;2023-04-03T16:38:19;8.70;93.50
32811;DHT22;65470;47.324;8.548;2023-04-03T16:40:45;8.60;93.50
32811;DHT22;65470;47.324;8.548;2023-04-03T16:43:11;8.50;94.10
32811;DHT22;65470;47.324;8.548;2023-04-03T16:45:37;8.50;94.10
32811;DHT22;65470;47.324;8.548;2023-04-03T16:48:03;8.40;94.10
32811;DHT22;65470;47.324;8.548;2023-04-03T16:50:28;8.40;93.70
32811;DHT22;65470;47.324;8.548;2023-04-03T16:52:54;8.30;94.60
32811;DHT22;65470;47.324;8.548;2023-04-03T16:55:20;8.40;94.40
32811;DHT22;65470;47.324;8.548;2023-04-03T16:57:46;8.20;94.50
32811;DHT22;65470;47.324;8.548;2023-04-03T17:00:12;8.20;95.40
32811;DHT22;65470;47.324;8.548;2023-04-03T17:02:39;8.20;95.00
32811;DHT22;65470;47.324;8.548;2023-04-03T17:05:05;8.20;95.00
32811;DHT22;65470;47.324;8.548;2023-04-03T17:07:31;8.20;96.30
32811;DHT22;65470;47.324;8.548;2023-04-03T17:09:57;8.20;96.70
32811;DHT22;65470;47.324;8.548;2023-04-03T17:12:24;8.20;95.60
32811;DHT22;65470;47.324;8.548;2023-04-03T17:14:50;8.20;95.70
32811;DHT22;65470;47.324;8.548;2023-04-03T17:17:20;8.10;95.30
32811;DHT22;65470;47.324;8.548;2023-04-03T17:19:46;8.00;94.60
32811;DHT22;65470;47.324;8.548;2023-04-03T17:22:12;7.90;95.20